createdAt,value
2023-05-02T00:01:18.850Z,2.00
2023-05-02T00:03:45.969Z,2.17
2023-05-02T00:06:13.069Z,1.90
2023-05-02T00:08:39.868Z,1.80
2023-05-02T00:11:06.560Z,1.90
2023-05-02T00:13:33.165Z,2.17
2023-05-02T00:15:59.856Z,2.25
2023-05-02T00:18:26.482Z,2.25
2023-05-02T00:20:53.054Z,1.95
2023-05-02T00:23:19.711Z,2.35
2023-05-02T00:25:46.614Z,2.28
2023-05-02T00:28:13.985Z,2.28
2023-05-02T00:30:47.422Z,2.83
2023-05-02T00:33:15.910Z,3.03
2023-05-02T00:35:42.540Z,3.00
2023-05-02T00:38:09.542Z,2.97
2023-05-02T00:40:51.310Z,2.80
2023-05-02T00:43:18.394Z,3.65
2023-05-02T00:45:46.489Z,3.65
2023-05-02T00:48:13.791Z,2.83
2023-05-02T00:50:43.641Z,2.70
2023-05-02T00:53:11.088Z,2.65
2023-05-02T00:55:38.095Z,2.95
2023-05-02T00:58:14.584Z,2.85
2023-05-02T01:01:12.429Z,2.75
2023-05-02T01:04:06.153Z,2.92
2023-05-02T01:06:50.797Z,2.47
2023-05-02T01:09:58.765Z,2.50
2023-05-02T01:12:41.885Z,2.00
2023-05-02T01:15:14.572Z,2.33
2023-05-02T01:17:42.645Z,2.33
2023-05-02T01:20:14.594Z,2.70
2023-05-02T01:22:41.830Z,2.30
2023-05-02T01:25:20.797Z,2.33
2023-05-02T01:28:14.856Z,2.30
2023-05-02T01:30:44.790Z,2.38
2023-05-02T01:33:15.358Z,2.05
2023-05-02T01:35:44.163Z,2.47
2023-05-02T01:38:16.096Z,2.17
2023-05-02T01:40:46.031Z,2.83
2023-05-02T01:43:16.601Z,2.00
2023-05-02T01:45:47.351Z,2.20
2023-05-02T01:48:17.913Z,2.40
2023-05-02T01:50:47.818Z,3.03
2023-05-02T01:53:15.516Z,2.70
2023-05-02T01:55:44.967Z,2.60
2023-05-02T01:58:14.214Z,2.80
2023-05-02T02:00:42.055Z,2.30
2023-05-02T02:03:10.525Z,2.85
2023-05-02T02:05:37.846Z,3.13
2023-05-02T02:08:04.875Z,2.50
2023-05-02T02:10:36.436Z,2.60
2023-05-02T02:13:24.566Z,2.60
2023-05-02T02:15:58.113Z,2.53
2023-05-02T02:18:27.834Z,2.90
2023-05-02T02:20:56.043Z,2.30
2023-05-02T02:23:29.021Z,2.55
2023-05-02T02:25:57.109Z,2.63
2023-05-02T02:28:23.922Z,3.42
2023-05-02T02:30:50.844Z,4.00
2023-05-02T02:33:18.667Z,3.05
2023-05-02T02:36:02.165Z,3.33
2023-05-02T02:38:42.263Z,3.20
2023-05-02T02:41:22.450Z,3.05
2023-05-02T02:44:16.874Z,3.70
2023-05-02T02:47:06.861Z,3.05
2023-05-02T02:49:45.888Z,3.60
2023-05-02T02:52:53.695Z,4.22
2023-05-02T02:55:32.004Z,3.90
2023-05-02T02:58:30.837Z,4.75
2023-05-02T03:01:01.772Z,4.82
2023-05-02T03:03:30.186Z,4.50
2023-05-02T03:05:57.440Z,4.60
2023-05-02T03:08:24.878Z,4.88
2023-05-02T03:10:51.651Z,4.35
2023-05-02T03:13:18.397Z,4.85
2023-05-02T03:16:06.806Z,4.85
2023-05-02T03:18:33.839Z,4.32
2023-05-02T03:21:02.982Z,4.32
2023-05-02T03:23:29.830Z,5.07
2023-05-02T03:25:56.512Z,4.57
2023-05-02T03:28:23.165Z,4.35
2023-05-02T03:30:49.816Z,5.18
2023-05-02T03:33:16.630Z,4.70
2023-05-02T03:35:43.327Z,5.68
2023-05-02T03:38:09.929Z,5.10
2023-05-02T03:40:36.564Z,4.43
2023-05-02T03:43:03.201Z,4.35
2023-05-02T03:45:29.891Z,4.50
2023-05-02T03:47:56.548Z,4.60
2023-05-02T03:50:23.596Z,5.00
2023-05-02T03:52:50.588Z,4.22
2023-05-02T03:55:17.240Z,4.90
2023-05-02T03:57:43.954Z,4.65
2023-05-02T04:00:11.289Z,4.57
2023-05-02T04:02:38.323Z,4.68
2023-05-02T04:05:05.511Z,4.95
2023-05-02T04:07:32.230Z,4.60
2023-05-02T04:09:59.269Z,4.60
2023-05-02T04:12:26.292Z,4.55
2023-05-02T04:14:52.898Z,4.15
2023-05-02T04:17:19.644Z,4.70
2023-05-02T04:19:46.326Z,4.57
2023-05-02T04:22:12.966Z,4.28
2023-05-02T04:24:39.579Z,5.25
2023-05-02T04:27:06.212Z,4.78
2023-05-02T04:29:32.895Z,5.55
2023-05-02T04:31:59.558Z,5.15
2023-05-02T04:34:26.292Z,4.55
2023-05-02T04:36:52.882Z,4.45
2023-05-02T04:39:25.573Z,5.07
2023-05-02T04:41:52.276Z,5.40
2023-05-02T04:44:18.870Z,5.72
2023-05-02T04:46:46.272Z,5.15
2023-05-02T04:49:14.862Z,5.90
2023-05-02T04:51:41.690Z,4.82
2023-05-02T04:54:08.390Z,5.13
2023-05-02T04:56:34.957Z,5.63
2023-05-02T04:59:01.633Z,6.13
2023-05-02T05:01:28.426Z,5.78
2023-05-02T05:03:55.700Z,5.03
2023-05-02T05:06:22.897Z,6.22
2023-05-02T05:08:52.746Z,5.93
2023-05-02T05:11:19.408Z,6.40
2023-05-02T05:13:46.389Z,6.60
2023-05-02T05:16:13.496Z,6.15
2023-05-02T05:18:43.274Z,6.47
2023-05-02T05:21:12.823Z,6.03
2023-05-02T05:23:39.601Z,6.47
2023-05-02T05:26:16.679Z,5.70
2023-05-02T05:28:44.058Z,6.22
2023-05-02T05:31:16.015Z,5.68
2023-05-02T05:33:43.913Z,6.10
2023-05-02T05:36:12.817Z,6.07
2023-05-02T05:38:39.721Z,6.20
2023-05-02T05:41:07.931Z,5.55
2023-05-02T05:43:38.375Z,6.22
2023-05-02T05:46:05.410Z,6.18
2023-05-02T05:48:32.021Z,6.45
2023-05-02T05:50:58.674Z,6.20
2023-05-02T05:53:25.811Z,5.88
2023-05-02T05:55:52.402Z,5.93
2023-05-02T05:58:19.067Z,6.40
2023-05-02T06:00:48.134Z,6.55
2023-05-02T06:03:15.069Z,5.70
2023-05-02T06:05:42.337Z,5.68
2023-05-02T06:08:09.093Z,5.72
2023-05-02T06:10:35.759Z,6.25
2023-05-02T06:13:02.366Z,6.57
2023-05-02T06:15:28.963Z,5.65
2023-05-02T06:17:55.821Z,6.10
2023-05-02T06:20:22.463Z,5.70
2023-05-02T06:25:15.510Z,4.50
2023-05-02T06:27:42.270Z,5.15
2023-05-02T06:30:09.358Z,5.20
2023-05-02T06:32:36.077Z,5.43
2023-05-02T06:35:02.854Z,5.38
2023-05-02T06:37:33.933Z,5.32
2023-05-02T06:40:00.953Z,5.28
2023-05-02T06:42:27.730Z,5.05
2023-05-02T06:44:54.338Z,4.65
2023-05-02T06:47:24.533Z,4.93
2023-05-02T06:49:54.260Z,4.82
2023-05-02T06:52:20.918Z,4.88
2023-05-02T06:54:47.620Z,5.35
2023-05-02T06:57:14.356Z,4.43
2023-05-02T06:59:41.094Z,3.72
2023-05-02T07:02:07.728Z,4.70
2023-05-02T07:04:37.263Z,4.10
2023-05-02T07:07:04.187Z,4.18
2023-05-02T07:09:32.738Z,3.50
2023-05-02T07:11:59.343Z,4.10
2023-05-02T07:14:25.944Z,4.30
2023-05-02T07:16:53.726Z,6.72
2023-05-02T07:19:20.511Z,5.55
2023-05-02T07:21:47.212Z,5.13
2023-05-02T07:24:13.888Z,4.60
2023-05-02T07:26:41.122Z,4.63
2023-05-02T07:29:08.838Z,4.15
2023-05-02T07:31:35.436Z,4.85
2023-05-02T07:34:02.088Z,4.70
2023-05-02T07:36:28.689Z,4.35
2023-05-02T07:38:55.725Z,3.95
2023-05-02T07:41:22.356Z,4.18
2023-05-02T07:43:49.039Z,3.30
2023-05-02T07:46:15.718Z,3.55
2023-05-02T07:48:42.978Z,3.15
2023-05-02T07:51:10.819Z,2.97
2023-05-02T07:53:37.425Z,2.55
2023-05-02T07:56:07.026Z,2.78
2023-05-02T07:58:33.804Z,3.85
2023-05-02T08:01:00.685Z,4.40
2023-05-02T08:03:28.360Z,3.00
2023-05-02T08:05:55.063Z,2.47
2023-05-02T08:08:21.801Z,2.88
2023-05-02T08:10:48.501Z,2.80
2023-05-02T08:13:15.100Z,2.85
2023-05-02T08:15:41.741Z,2.30
2023-05-02T08:18:08.523Z,2.83
2023-05-02T08:20:37.504Z,3.88
2023-05-02T08:23:04.123Z,3.65
2023-05-02T08:25:30.775Z,3.05
2023-05-02T08:27:57.473Z,3.22
2023-05-02T08:30:24.614Z,6.20
2023-05-02T08:32:51.298Z,5.43
2023-05-02T08:35:18.129Z,3.88
2023-05-02T08:37:47.596Z,3.33
2023-05-02T08:40:24.672Z,3.15
2023-05-02T08:42:57.521Z,3.05
2023-05-02T08:45:24.863Z,3.22
2023-05-02T08:47:52.735Z,2.72
2023-05-02T08:50:20.592Z,2.63
2023-05-02T08:52:48.915Z,3.00
2023-05-02T08:55:15.864Z,2.50
2023-05-02T08:57:43.720Z,3.40
2023-05-02T09:00:11.563Z,2.60
2023-05-02T09:02:59.451Z,2.63
2023-05-02T09:05:26.340Z,2.30
2023-05-02T09:07:53.054Z,2.17
2023-05-02T09:10:21.728Z,2.45
2023-05-02T09:12:48.540Z,1.75
2023-05-02T09:15:20.583Z,2.00
2023-05-02T09:17:49.083Z,1.55
2023-05-02T09:20:16.939Z,2.10
2023-05-02T09:22:53.125Z,2.30
2023-05-02T09:25:20.797Z,1.75
2023-05-02T09:27:55.317Z,1.90
2023-05-02T09:32:55.658Z,2.25
2023-05-02T09:35:26.186Z,2.40
2023-05-02T09:37:54.786Z,2.03
2023-05-02T09:40:22.207Z,2.10
2023-05-02T09:42:49.091Z,2.55
2023-05-02T09:45:24.748Z,2.00
2023-05-02T09:47:52.429Z,1.70
2023-05-02T09:50:41.389Z,2.50
2023-05-02T09:53:12.193Z,2.10
2023-05-02T09:55:39.831Z,2.42
2023-05-02T09:58:06.853Z,2.10
2023-05-02T10:00:44.387Z,2.22
2023-05-02T10:03:11.527Z,2.45
2023-05-02T10:05:39.202Z,2.65
2023-05-02T10:08:07.631Z,2.60
2023-05-02T10:10:38.008Z,2.55
2023-05-02T10:13:05.917Z,2.60
2023-05-02T10:15:33.968Z,2.78
2023-05-02T10:18:07.402Z,2.83
2023-05-02T10:20:37.308Z,2.20
2023-05-02T10:23:06.139Z,2.72
2023-05-02T10:25:33.483Z,2.88
2023-05-02T10:28:00.334Z,2.70
2023-05-02T10:30:27.196Z,2.90
2023-05-02T10:32:56.565Z,2.50
2023-05-02T10:35:25.828Z,3.03
2023-05-02T10:37:53.645Z,2.80
2023-05-02T10:40:20.477Z,2.90
2023-05-02T10:42:51.341Z,3.08
2023-05-02T10:45:30.273Z,2.63
2023-05-02T10:48:25.454Z,3.05
2023-05-02T10:50:56.283Z,2.95
2023-05-02T10:53:44.903Z,3.38
2023-05-02T10:56:22.022Z,3.50
2023-05-02T10:58:50.728Z,3.17
2023-05-02T11:01:29.721Z,3.22
2023-05-02T11:04:10.384Z,3.47
2023-05-02T11:06:59.277Z,3.00
2023-05-02T11:09:26.788Z,2.60
2023-05-02T11:11:56.541Z,2.42
2023-05-02T11:14:26.180Z,3.30
2023-05-02T11:17:01.703Z,3.30
2023-05-02T11:19:31.203Z,3.10
2023-05-02T11:22:27.134Z,2.60
2023-05-02T11:24:54.465Z,2.80
2023-05-02T11:27:38.587Z,2.70
2023-05-02T11:30:09.800Z,2.78
2023-05-02T11:32:45.733Z,2.83
2023-05-02T11:35:19.525Z,2.90
2023-05-02T11:37:58.894Z,3.23
2023-05-02T11:40:27.209Z,2.80
2023-05-02T11:42:54.600Z,2.83
2023-05-02T11:45:21.702Z,2.65
2023-05-02T11:47:49.576Z,3.30
2023-05-02T11:50:16.947Z,3.17
2023-05-02T11:52:45.438Z,3.60
2023-05-02T11:55:13.753Z,2.75
2023-05-02T11:57:41.069Z,2.97
2023-05-02T12:00:08.321Z,3.42
2023-05-02T12:02:46.139Z,2.85
2023-05-02T12:05:14.271Z,3.45
2023-05-02T12:07:45.925Z,3.03
2023-05-02T12:10:13.856Z,2.88
2023-05-02T12:12:44.100Z,2.40
2023-05-02T12:15:18.286Z,3.60
2023-05-02T12:17:52.338Z,3.08
2023-05-02T12:20:19.316Z,2.75
2023-05-02T12:22:46.746Z,2.95
2023-05-02T12:25:13.891Z,4.80
2023-05-02T12:27:40.648Z,3.65
2023-05-02T12:30:08.858Z,3.35
2023-05-02T12:32:36.719Z,3.50
2023-05-02T12:35:04.063Z,3.53
2023-05-02T12:37:30.801Z,3.83
2023-05-02T12:39:57.499Z,3.55
2023-05-02T12:42:26.085Z,3.10
2023-05-02T12:44:53.621Z,3.00
2023-05-02T12:47:22.730Z,3.00
2023-05-02T12:49:53.189Z,3.03
2023-05-02T12:52:59.192Z,3.72
2023-05-02T12:55:29.429Z,3.50
2023-05-02T12:58:25.548Z,3.60
2023-05-02T13:00:52.281Z,3.97
2023-05-02T13:03:18.954Z,3.05
2023-05-02T13:05:45.696Z,2.88
2023-05-02T13:08:12.341Z,3.13
2023-05-02T13:10:38.993Z,3.45
2023-05-02T13:13:05.673Z,3.40
2023-05-02T13:15:32.546Z,2.95
2023-05-02T13:17:59.259Z,3.05
2023-05-02T13:20:26.251Z,3.10
2023-05-02T13:22:52.867Z,3.10
2023-05-02T13:25:19.438Z,2.78
2023-05-02T13:27:46.228Z,2.67
2023-05-02T13:30:15.064Z,2.90
2023-05-02T13:32:41.807Z,3.00
2023-05-02T13:35:09.541Z,3.45
2023-05-02T13:37:36.290Z,3.17
2023-05-02T13:40:03.079Z,2.60
2023-05-02T13:42:29.921Z,2.95
2023-05-02T13:44:56.559Z,2.63
2023-05-02T13:47:23.470Z,3.25
2023-05-02T13:49:53.306Z,3.50
2023-05-02T13:52:23.031Z,3.60
2023-05-02T13:54:49.612Z,3.60
2023-05-02T13:57:16.285Z,3.60
2023-05-02T13:59:42.900Z,3.15
2023-05-02T14:02:09.655Z,3.53
2023-05-02T14:04:36.487Z,3.80
2023-05-02T14:07:03.100Z,4.15
2023-05-02T14:09:29.755Z,3.33
2023-05-02T14:11:56.711Z,3.28
2023-05-02T14:14:23.290Z,4.05
2023-05-02T14:16:50.570Z,4.05
2023-05-02T14:19:18.099Z,3.50
2023-05-02T14:21:44.694Z,3.13
2023-05-02T14:24:14.697Z,3.50
2023-05-02T14:26:41.292Z,3.60
2023-05-02T14:29:08.715Z,3.53
2023-05-02T14:31:35.721Z,3.20
2023-05-02T14:34:02.849Z,3.35
2023-05-02T14:36:29.504Z,3.35
2023-05-02T14:38:56.121Z,2.90
2023-05-02T14:41:24.139Z,3.05
2023-05-02T14:43:52.119Z,3.92
2023-05-02T14:46:18.764Z,3.90
2023-05-02T14:48:45.612Z,3.65
2023-05-02T14:51:12.229Z,3.97
2023-05-02T14:53:39.332Z,4.32
2023-05-02T14:56:06.317Z,3.92
2023-05-02T14:58:32.979Z,3.55
2023-05-02T15:00:59.672Z,3.90
2023-05-02T15:03:26.529Z,4.00
2023-05-02T15:05:53.365Z,3.67
2023-05-02T15:08:19.929Z,3.78
2023-05-02T15:10:46.625Z,4.25
2023-05-02T15:13:13.463Z,4.13
2023-05-02T15:15:40.159Z,4.22
2023-05-02T15:18:06.856Z,4.15
2023-05-02T15:20:33.505Z,4.43
2023-05-02T15:23:03.453Z,4.38
2023-05-02T15:25:31.018Z,4.40
2023-05-02T15:27:57.691Z,3.95
2023-05-02T15:30:24.996Z,4.10
2023-05-02T15:32:51.735Z,3.95
2023-05-02T15:35:18.404Z,4.20
2023-05-02T15:37:44.991Z,4.38
2023-05-02T15:40:12.199Z,4.28
2023-05-02T15:42:38.812Z,3.90
2023-05-02T15:45:06.232Z,4.28
2023-05-02T15:47:32.891Z,4.30
2023-05-02T15:50:00.291Z,3.95
2023-05-02T15:52:27.181Z,8.23
2023-05-02T15:54:56.146Z,11.52
2023-05-02T15:57:23.096Z,7.15
2023-05-02T15:59:50.207Z,5.93
2023-05-02T16:02:16.908Z,4.50
2023-05-02T16:04:46.566Z,4.55
2023-05-02T16:07:13.253Z,4.10
2023-05-02T16:09:40.297Z,3.90
2023-05-02T16:12:07.389Z,4.30
2023-05-02T16:14:34.913Z,4.30
2023-05-02T16:17:01.792Z,4.63
2023-05-02T16:19:28.445Z,4.25
2023-05-02T16:21:55.078Z,3.95
2023-05-02T16:24:21.802Z,4.00
2023-05-02T16:26:48.498Z,4.03
2023-05-02T16:29:15.102Z,3.88
2023-05-02T16:31:44.220Z,3.70
2023-05-02T16:34:11.298Z,3.88
2023-05-02T16:36:37.914Z,3.70
2023-05-02T16:39:04.602Z,3.67
2023-05-02T16:41:31.310Z,3.50
2023-05-02T16:43:57.944Z,3.60
2023-05-02T16:46:24.648Z,3.58
2023-05-02T16:48:51.277Z,4.47
2023-05-02T16:51:17.942Z,3.58
2023-05-02T16:53:46.303Z,3.58
2023-05-02T16:56:13.257Z,3.50
2023-05-02T16:58:39.905Z,3.45
2023-05-02T17:01:06.692Z,3.20
2023-05-02T17:03:33.378Z,3.20
2023-05-02T17:06:01.980Z,3.38
2023-05-02T17:08:29.079Z,3.20
2023-05-02T17:10:56.289Z,3.45
2023-05-02T17:13:22.997Z,3.50
2023-05-02T17:15:50.146Z,3.25
2023-05-02T17:18:16.882Z,3.20
2023-05-02T17:20:45.994Z,3.17
2023-05-02T17:23:12.929Z,3.17
2023-05-02T17:25:39.543Z,3.55
2023-05-02T17:28:06.529Z,3.47
2023-05-02T17:30:34.090Z,2.90
2023-05-02T17:33:00.727Z,4.03
2023-05-02T17:35:27.559Z,3.25
2023-05-02T17:37:55.409Z,2.92
2023-05-02T17:40:22.093Z,2.90
2023-05-02T17:42:49.082Z,2.95
2023-05-02T17:45:19.095Z,2.95
2023-05-02T17:47:45.857Z,2.90
2023-05-02T17:50:14.267Z,3.33
2023-05-02T17:52:41.063Z,3.33
2023-05-02T17:55:08.804Z,3.17
2023-05-02T17:57:37.607Z,3.30
2023-05-02T18:00:07.735Z,3.10
2023-05-02T18:02:37.137Z,3.25
2023-05-02T18:05:05.009Z,3.40
2023-05-02T18:07:31.900Z,4.55
2023-05-02T18:10:03.735Z,3.63
2023-05-02T18:12:32.458Z,5.00
2023-05-02T18:14:59.161Z,3.72
2023-05-02T18:17:27.046Z,3.75
2023-05-02T18:19:53.827Z,3.88
2023-05-02T18:22:21.762Z,3.63
2023-05-02T18:24:49.839Z,3.22
2023-05-02T18:27:17.785Z,3.50
2023-05-02T18:29:44.477Z,3.65
2023-05-02T18:32:11.248Z,3.53
2023-05-02T18:34:39.072Z,3.30
2023-05-02T18:37:05.945Z,3.60
2023-05-02T18:39:33.764Z,3.35
2023-05-02T18:42:04.489Z,3.33
2023-05-02T18:44:33.902Z,3.40
2023-05-02T18:47:01.149Z,3.90
2023-05-02T18:49:27.821Z,3.78
2023-05-02T18:51:57.356Z,3.85
2023-05-02T18:54:24.409Z,3.28
2023-05-02T18:56:51.069Z,3.45
2023-05-02T18:59:20.302Z,3.40
2023-05-02T19:01:50.074Z,3.45
2023-05-02T19:04:16.861Z,3.72
2023-05-02T19:06:43.712Z,3.80
2023-05-02T19:09:12.498Z,3.72
2023-05-02T19:11:39.948Z,4.03
2023-05-02T19:14:06.664Z,3.90
2023-05-02T19:16:35.031Z,5.07
2023-05-02T19:19:02.254Z,4.63
2023-05-02T19:21:28.941Z,4.47
2023-05-02T19:23:56.703Z,4.45
2023-05-02T19:26:25.201Z,5.03
2023-05-02T19:28:51.987Z,4.35
2023-05-02T19:31:20.427Z,4.72
2023-05-02T19:33:51.996Z,4.75
2023-05-02T19:36:19.895Z,4.72
2023-05-02T19:38:58.304Z,4.22
2023-05-02T19:41:28.061Z,4.72
2023-05-02T19:43:58.998Z,4.35
2023-05-02T19:46:30.322Z,5.10
2023-05-02T19:48:57.110Z,4.72
2023-05-02T19:51:25.790Z,5.15
2023-05-02T19:53:53.877Z,5.70
2023-05-02T19:56:21.628Z,5.25
2023-05-02T19:58:48.213Z,4.68
2023-05-02T20:01:15.024Z,4.95
2023-05-02T20:03:41.805Z,5.18
2023-05-02T20:06:08.685Z,5.25
2023-05-02T20:08:35.564Z,5.80
2023-05-02T20:11:02.332Z,5.43
2023-05-02T20:13:29.023Z,5.55
2023-05-02T20:15:55.646Z,6.00
2023-05-02T20:18:22.374Z,5.97
2023-05-02T20:20:49.021Z,5.70
2023-05-02T20:23:16.152Z,5.68
2023-05-02T20:25:45.689Z,5.60
2023-05-02T20:28:12.287Z,5.35
2023-05-02T20:30:43.468Z,4.85
2023-05-02T20:33:16.159Z,5.43
2023-05-02T20:35:44.173Z,4.88
2023-05-02T20:38:11.272Z,5.70
2023-05-02T20:40:40.075Z,5.25
2023-05-02T20:43:06.805Z,5.90
2023-05-02T20:45:33.442Z,5.57
2023-05-02T20:48:00.150Z,6.10
2023-05-02T20:50:27.214Z,5.43
2023-05-02T20:52:54.470Z,5.88
2023-05-02T20:55:23.067Z,5.72
2023-05-02T20:57:53.508Z,8.50
2023-05-02T21:00:23.781Z,7.15
2023-05-02T21:02:50.677Z,6.47
2023-05-02T21:05:17.500Z,6.65
2023-05-02T21:07:44.887Z,7.18
2023-05-02T21:10:15.083Z,7.25
2023-05-02T21:12:41.689Z,8.00
2023-05-02T21:15:08.534Z,7.10
2023-05-02T21:17:35.164Z,7.63
2023-05-02T21:20:02.186Z,7.00
2023-05-02T21:22:29.187Z,6.97
2023-05-02T21:27:23.121Z,7.40
2023-05-02T21:29:49.979Z,7.30
2023-05-02T21:32:16.752Z,7.20
2023-05-02T21:34:43.410Z,7.40
2023-05-02T21:37:10.015Z,7.85
2023-05-02T21:39:38.632Z,6.85
2023-05-02T21:42:05.684Z,7.03
2023-05-02T21:44:32.279Z,7.78
2023-05-02T21:46:59.010Z,7.22
2023-05-02T21:49:25.774Z,7.80
2023-05-02T21:51:52.388Z,8.15
2023-05-02T21:54:18.958Z,7.65
2023-05-02T21:56:45.537Z,8.35
2023-05-02T21:59:12.154Z,7.28
2023-05-02T22:01:38.816Z,7.82
2023-05-02T22:04:05.697Z,8.20
2023-05-02T22:06:33.548Z,8.65
2023-05-02T22:09:00.261Z,8.40
2023-05-02T22:11:28.628Z,8.98
2023-05-02T22:13:55.305Z,8.45
2023-05-02T22:16:22.105Z,8.55
2023-05-02T22:18:49.689Z,8.20
2023-05-02T22:21:16.386Z,9.00
2023-05-02T22:23:43.041Z,9.32
2023-05-02T22:26:09.730Z,8.70
2023-05-02T22:28:39.268Z,8.20
2023-05-02T22:31:06.035Z,8.73
2023-05-02T22:33:32.771Z,8.07
2023-05-02T22:35:59.445Z,8.70
2023-05-02T22:38:28.745Z,7.22
2023-05-02T22:40:55.444Z,8.23
2023-05-02T22:43:22.089Z,8.82
2023-05-02T22:45:51.321Z,7.78
2023-05-02T22:48:18.278Z,8.07
2023-05-02T22:50:48.805Z,8.32
2023-05-02T22:53:15.776Z,8.00
2023-05-02T22:55:42.662Z,8.13
2023-05-02T22:58:09.287Z,7.85
2023-05-02T23:00:36.595Z,7.78
2023-05-02T23:03:06.119Z,7.70
2023-05-02T23:05:32.803Z,7.88
2023-05-02T23:07:59.414Z,8.00
2023-05-02T23:10:26.102Z,7.85
2023-05-02T23:12:52.732Z,8.25
2023-05-02T23:15:19.527Z,8.73
2023-05-02T23:17:46.166Z,7.53
2023-05-02T23:20:12.946Z,9.30
2023-05-02T23:22:46.258Z,8.65
2023-05-02T23:25:15.190Z,9.60
2023-05-02T23:27:41.931Z,9.63
2023-05-02T23:30:11.669Z,10.13
2023-05-02T23:32:39.519Z,8.85
2023-05-02T23:35:06.729Z,9.48
2023-05-02T23:37:33.775Z,9.68
2023-05-02T23:40:01.123Z,7.90
2023-05-02T23:42:29.909Z,8.45
2023-05-02T23:44:57.928Z,8.05
2023-05-02T23:47:27.166Z,8.43
2023-05-02T23:49:54.182Z,8.50
2023-05-02T23:52:21.109Z,8.75
2023-05-02T23:54:47.876Z,8.18
2023-05-02T23:57:14.498Z,8.23
2023-05-02T23:59:41.218Z,8.50
